Time;durP1;ratioP1;P1;durP2;ratioP2;P2;SDS_P1;SDS_P2;PMS_P1;PMS_P2;Temp;Humidity;BMP_temperature;BMP_pressure;BME280_temperature;BME280_humidity;BME280_pressure;Samples;Min_cycle;Max_cycle;Signal;HPM_P1;HPM_P2
2023/03/31 00:01:35;;;;;;;4.15;2.20;;;13.10;99.50;;;;;;5032124;28;20034;-70
2023/03/31 00:04:03;;;;;;;4.30;2.08;;;13.10;99.50;;;;;;5036769;28;20044;-70
2023/03/31 00:06:36;;;;;;;3.72;2.05;;;13.10;99.50;;;;;;5021691;28;20082;-70
2023/03/31 00:09:11;;;;;;;4.97;2.33;;;13.10;99.50;;;;;;5036650;28;20086;-68
2023/03/31 00:11:38;;;;;;;4.40;2.38;;;13.10;99.40;;;;;;5027374;28;20033;-70
2023/03/31 00:14:06;;;;;;;3.22;2.00;;;13.10;99.40;;;;;;5033169;28;20030;-70
2023/03/31 00:16:36;;;;;;;6.32;2.30;;;13.10;99.40;;;;;;5032355;28;20657;-70
2023/03/31 00:19:02;;;;;;;5.22;2.13;;;13.10;99.40;;;;;;5029035;28;20033;-70
2023/03/31 00:21:32;;;;;;;5.50;2.40;;;13.10;99.40;;;;;;5027910;28;20109;-70
2023/03/31 00:24:03;;;;;;;4.45;2.47;;;13.10;99.30;;;;;;5030637;28;20037;-71
2023/03/31 00:26:29;;;;;;;5.00;2.20;;;13.10;99.30;;;;;;5031933;28;20120;-70
2023/03/31 00:28:55;;;;;;;5.53;2.30;;;13.10;99.30;;;;;;5024708;28;20116;-70
2023/03/31 00:31:22;;;;;;;5.30;2.28;;;13.10;99.30;;;;;;5022056;28;20030;-70
2023/03/31 00:33:48;;;;;;;2.95;2.08;;;13.10;99.30;;;;;;5031125;28;20029;-70
2023/03/31 00:36:19;;;;;;;4.60;2.45;;;13.20;99.30;;;;;;5028202;28;20486;-70
2023/03/31 00:38:46;;;;;;;3.33;1.80;;;13.10;99.20;;;;;;5029927;28;20033;-71
2023/03/31 00:41:13;;;;;;;6.32;2.22;;;13.10;99.20;;;;;;5031912;28;20029;-70
2023/03/31 00:43:38;;;;;;;4.40;2.08;;;13.10;99.20;;;;;;5031188;28;20033;-71
2023/03/31 00:46:26;;;;;;;6.07;1.88;;;13.10;99.20;;;;;;5028648;28;20036;-71
2023/03/31 00:48:56;;;;;;;3.95;2.08;;;13.10;99.10;;;;;;5029212;28;20025;-70
2023/03/31 00:51:28;;;;;;;6.30;2.38;;;13.20;99.10;;;;;;5032890;28;20025;-71
2023/03/31 00:54:01;;;;;;;6.80;1.73;;;13.10;99.10;;;;;;5025071;28;20033;-70
2023/03/31 00:56:36;;;;;;;3.58;2.20;;;13.10;99.10;;;;;;5025640;28;20084;-70
2023/03/31 00:59:06;;;;;;;5.15;2.50;;;13.10;99.00;;;;;;5030935;28;20120;-70
2023/03/31 01:01:34;;;;;;;7.82;2.45;;;13.00;99.00;;;;;;5029492;28;20037;-69
2023/03/31 01:04:01;;;;;;;7.63;2.33;;;13.10;99.00;;;;;;5036178;28;20038;-69
2023/03/31 01:06:29;;;;;;;5.95;2.00;;;13.00;99.00;;;;;;5016076;28;20022;-69
2023/03/31 01:08:56;;;;;;;4.60;2.15;;;13.00;99.00;;;;;;5033559;28;20398;-71
2023/03/31 01:11:25;;;;;;;3.08;1.80;;;13.00;99.00;;;;;;5030952;28;20329;-71
2023/03/31 01:13:54;;;;;;;5.05;1.90;;;13.00;99.00;;;;;;5042318;28;20492;-69
2023/03/31 01:16:21;;;;;;;5.28;2.05;;;13.00;99.00;;;;;;5027909;28;22127;-70
2023/03/31 01:18:48;;;;;;;4.43;2.25;;;12.90;99.00;;;;;;5031737;28;20363;-71
2023/03/31 01:21:36;;;;;;;3.83;1.70;;;12.90;99.00;;;;;;5030768;28;20046;-72
2023/03/31 01:24:14;;;;;;;4.03;1.70;;;12.90;99.00;;;;;;5028470;28;20056;-71
2023/03/31 01:26:53;;;;;;;2.83;1.73;;;12.80;98.90;;;;;;5030507;28;20029;-72
2023/03/31 01:29:50;;;;;;;6.53;1.73;;;12.80;99.00;;;;;;5029683;28;20601;-71
2023/03/31 01:32:42;;;;;;;3.88;1.77;;;12.70;99.00;;;;;;5034175;28;20048;-71
2023/03/31 01:35:29;;;;;;;4.30;1.80;;;12.70;99.00;;;;;;5027433;28;20513;-71
2023/03/31 01:38:04;;;;;;;5.28;1.77;;;12.60;99.00;;;;;;5030069;28;20025;-71
2023/03/31 01:40:38;;;;;;;3.83;1.70;;;12.60;99.10;;;;;;5029084;28;20106;-71
2023/03/31 01:43:04;;;;;;;3.75;1.85;;;12.60;99.10;;;;;;5034759;28;20568;-70
2023/03/31 01:45:44;;;;;;;5.15;2.20;;;12.50;99.10;;;;;;5031654;28;20520;-71
2023/03/31 01:48:40;;;;;;;4.90;1.95;;;12.50;99.20;;;;;;5029492;28;20033;-71
2023/03/31 01:51:28;;;;;;;3.42;1.75;;;12.40;99.20;;;;;;5028916;28;20100;-71
2023/03/31 01:54:02;;;;;;;4.05;1.98;;;12.40;99.20;;;;;;5045945;28;20030;-71
2023/03/31 01:56:34;;;;;;;4.80;1.80;;;12.40;99.30;;;;;;5027079;28;20029;-71
2023/03/31 01:59:09;;;;;;;4.28;1.75;;;12.40;99.30;;;;;;5034858;28;20025;-71
2023/03/31 02:01:51;;;;;;;5.30;1.70;;;12.30;99.30;;;;;;5020632;28;20066;-71
2023/03/31 02:04:25;;;;;;;3.17;1.60;;;12.40;99.40;;;;;;5033984;28;20095;-71
2023/03/31 02:07:02;;;;;;;5.03;1.70;;;12.30;99.40;;;;;;5025973;28;20168;-71
2023/03/31 02:09:34;;;;;;;3.35;1.48;;;12.30;99.40;;;;;;5032914;28;20029;-71
2023/03/31 02:12:03;;;;;;;4.97;2.15;;;12.30;99.50;;;;;;5025968;28;20053;-71
2023/03/31 02:14:31;;;;;;;6.05;1.92;;;12.30;99.50;;;;;;5031007;28;20033;-71
2023/03/31 02:17:01;;;;;;;4.25;2.10;;;12.40;99.50;;;;;;5029103;28;20032;-71
2023/03/31 02:19:31;;;;;;;3.13;1.40;;;12.40;99.50;;;;;;5026815;28;20041;-72
2023/03/31 02:21:58;;;;;;;3.38;1.73;;;12.40;99.50;;;;;;5028483;28;20069;-72
2023/03/31 02:24:26;;;;;;;3.97;2.10;;;12.40;99.50;;;;;;5028972;28;20102;-72
2023/03/31 02:27:14;;;;;;;3.20;1.70;;;12.40;99.50;;;;;;5031514;28;20052;-72
2023/03/31 02:29:40;;;;;;;4.40;1.80;;;12.40;99.50;;;;;;5030424;28;20052;-71
2023/03/31 02:32:21;;;;;;;5.78;1.60;;;12.40;99.50;;;;;;5031616;28;20038;-72
2023/03/31 02:34:47;;;;;;;5.30;1.70;;;12.40;99.50;;;;;;5029961;28;20021;-72
2023/03/31 02:37:13;;;;;;;4.13;1.58;;;12.40;99.50;;;;;;5025193;28;20033;-71
2023/03/31 02:39:42;;;;;;;5.20;1.70;;;12.40;99.50;;;;;;5030695;28;20030;-72
2023/03/31 02:42:08;;;;;;;5.75;2.05;;;12.40;99.50;;;;;;5027542;28;20129;-72
2023/03/31 02:44:35;;;;;;;6.05;1.73;;;12.50;99.50;;;;;;5032510;28;20395;-72
2023/03/31 02:47:03;;;;;;;3.45;1.63;;;12.50;99.50;;;;;;5032683;28;20032;-72
2023/03/31 02:49:29;;;;;;;3.47;1.92;;;12.50;99.60;;;;;;5030253;28;20029;-72
2023/03/31 02:52:24;;;;;;;4.22;1.50;;;12.50;99.60;;;;;;5027225;28;20034;-71
2023/03/31 02:54:58;;;;;;;4.20;1.42;;;12.50;99.60;;;;;;5028327;28;20029;-72
2023/03/31 02:57:47;;;;;;;4.38;1.55;;;12.50;99.60;;;;;;5046697;28;20125;-72
2023/03/31 03:00:13;;;;;;;4.70;1.70;;;12.50;99.60;;;;;;5032643;28;20045;-72
2023/03/31 03:03:16;;;;;;;3.53;1.88;;;12.50;99.50;;;;;;5025778;28;20110;-72
2023/03/31 03:05:57;;;;;;;4.80;2.00;;;12.50;99.60;;;;;;5028431;28;20037;-72
2023/03/31 03:08:32;;;;;;;2.45;1.70;;;12.50;99.50;;;;;;5030764;28;20108;-72
2023/03/31 03:11:03;;;;;;;;;;;12.50;99.50;;;;;;5028823;28;20024;-71
2023/03/31 03:14:17;;;;;;;3.92;1.95;;;12.60;99.50;;;;;;5029035;28;19916;-71
2023/03/31 03:16:47;;;;;;;4.20;1.95;;;12.50;99.50;;;;;;5028158;28;20096;-71
2023/03/31 03:19:20;;;;;;;3.65;1.60;;;12.50;99.50;;;;;;5033484;28;20075;-71
2023/03/31 03:21:46;;;;;;;5.38;2.38;;;12.50;99.50;;;;;;5026579;28;20052;-70
2023/03/31 03:24:14;;;;;;;6.18;2.00;;;12.50;99.50;;;;;;5032088;28;20045;-71
2023/03/31 03:26:40;;;;;;;3.97;1.52;;;12.60;99.60;;;;;;5026024;28;20025;-71
2023/03/31 03:29:05;;;;;;;2.97;1.58;;;12.60;99.60;;;;;;5014191;28;20037;-71
2023/03/31 03:31:32;;;;;;;7.57;1.70;;;12.60;99.60;;;;;;5030414;28;20029;-71
2023/03/31 03:33:58;;;;;;;3.53;1.58;;;12.60;99.60;;;;;;5029377;28;20108;-70
2023/03/31 03:36:23;;;;;;;3.65;1.65;;;12.50;99.50;;;;;;5027849;28;20126;-70
2023/03/31 03:38:49;;;;;;;3.17;1.70;;;12.60;99.60;;;;;;5025351;28;20420;-70
2023/03/31 03:41:15;;;;;;;4.65;1.98;;;12.60;99.60;;;;;;5022155;28;20021;-70
2023/03/31 03:43:41;;;;;;;2.70;1.40;;;12.60;99.70;;;;;;5029761;28;20046;-71
2023/03/31 03:46:07;;;;;;;3.80;1.88;;;12.60;99.80;;;;;;5026596;28;20029;-71
2023/03/31 03:48:33;;;;;;;3.53;1.50;;;12.60;99.80;;;;;;5048205;28;20045;-70
2023/03/31 03:51:01;;;;;;;3.83;1.80;;;12.60;99.80;;;;;;5034463;28;20047;-70
2023/03/31 03:53:27;;;;;;;4.60;1.70;;;12.60;99.80;;;;;;5035962;28;20056;-71
2023/03/31 03:55:53;;;;;;;3.85;1.52;;;12.70;99.80;;;;;;5035161;28;20063;-71
2023/03/31 03:58:18;;;;;;;3.40;1.90;;;12.70;99.80;;;;;;5034086;28;20103;-71
2023/03/31 04:00:45;;;;;;;4.25;1.77;;;12.70;99.90;;;;;;5033192;28;20131;-71
2023/03/31 04:03:11;;;;;;;6.43;2.13;;;12.70;99.80;;;;;;5031326;28;20159;-71
2023/03/31 04:05:37;;;;;;;6.10;2.05;;;12.70;99.80;;;;;;5036441;28;20028;-70
2023/03/31 04:08:04;;;;;;;5.70;2.05;;;12.70;99.80;;;;;;5032358;28;20388;-70
2023/03/31 04:10:31;;;;;;;5.13;1.65;;;12.70;99.90;;;;;;5034090;28;20090;-71
2023/03/31 04:12:56;;;;;;;3.33;1.42;;;12.70;99.90;;;;;;5030850;28;20488;-71
2023/03/31 04:15:22;;;;;;;5.20;2.08;;;12.80;99.90;;;;;;5038449;28;20060;-71
2023/03/31 04:17:49;;;;;;;4.03;1.90;;;12.80;99.90;;;;;;5027896;28;20484;-71
2023/03/31 04:20:16;;;;;;;4.70;1.52;;;12.70;99.90;;;;;;5029922;28;20038;-70
2023/03/31 04:22:45;;;;;;;4.32;1.65;;;12.70;99.90;;;;;;5029952;28;20029;-71
2023/03/31 04:25:15;;;;;;;4.43;1.85;;;12.80;99.90;;;;;;5031154;28;20385;-71
2023/03/31 04:27:49;;;;;;;2.97;1.73;;;12.70;99.90;;;;;;5026749;28;20021;-71
2023/03/31 04:30:21;;;;;;;8.30;2.57;;;12.70;99.90;;;;;;5030546;28;20033;-70
2023/03/31 04:32:53;;;;;;;4.15;2.03;;;12.70;99.90;;;;;;5027729;28;20346;-72
2023/03/31 04:35:23;;;;;;;3.10;1.48;;;12.70;99.90;;;;;;5036185;28;20025;-71
2023/03/31 04:37:51;;;;;;;3.30;1.83;;;12.70;99.90;;;;;;5027790;28;20368;-71
2023/03/31 04:40:17;;;;;;;5.55;1.88;;;12.70;99.90;;;;;;5033579;28;20035;-72
2023/03/31 04:42:43;;;;;;;2.88;1.60;;;12.60;99.90;;;;;;5030466;28;20120;-72
2023/03/31 04:45:11;;;;;;;6.30;1.98;;;12.70;99.90;;;;;;5019869;28;20060;-71
2023/03/31 04:47:37;;;;;;;3.55;1.67;;;12.60;99.90;;;;;;5019106;28;20036;-71
2023/03/31 04:50:03;;;;;;;5.30;2.15;;;12.60;99.90;;;;;;5024918;28;20453;-71
2023/03/31 04:52:28;;;;;;;4.93;2.53;;;12.70;99.90;;;;;;5027697;28;20032;-72
2023/03/31 04:54:54;;;;;;;8.10;2.50;;;12.60;99.90;;;;;;5036424;28;20029;-71
2023/03/31 04:57:20;;;;;;;5.13;2.28;;;12.60;99.90;;;;;;5028517;28;20025;-72
2023/03/31 04:59:45;;;;;;;4.70;2.10;;;12.60;99.90;;;;;;5036363;28;20382;-71
2023/03/31 05:02:11;;;;;;;5.28;1.70;;;12.60;99.90;;;;;;5033149;28;20485;-70
2023/03/31 05:04:36;;;;;;;6.00;2.00;;;12.60;99.90;;;;;;5027745;28;20037;-68
2023/03/31 05:07:03;;;;;;;3.47;1.77;;;12.60;99.90;;;;;;5027839;28;20040;-66
2023/03/31 05:09:28;;;;;;;4.38;1.90;;;12.70;99.90;;;;;;5024310;28;20037;-67
2023/03/31 05:11:55;;;;;;;6.13;2.05;;;12.60;99.90;;;;;;5031566;28;20048;-67
2023/03/31 05:14:20;;;;;;;4.18;1.80;;;12.70;99.90;;;;;;5037961;28;20039;-67
2023/03/31 05:16:46;;;;;;;4.65;1.92;;;12.70;99.90;;;;;;5026563;28;20448;-67
2023/03/31 05:19:12;;;;;;;4.20;2.22;;;12.70;99.90;;;;;;5029195;28;20044;-67
2023/03/31 05:21:37;;;;;;;5.50;2.03;;;12.70;99.90;;;;;;5028996;28;20038;-68
2023/03/31 05:24:03;;;;;;;4.65;1.98;;;12.70;99.90;;;;;;5027232;28;20036;-66
2023/03/31 05:26:29;;;;;;;4.10;1.67;;;12.60;99.90;;;;;;5032625;28;20162;-70
2023/03/31 05:28:55;;;;;;;4.28;1.95;;;12.70;99.90;;;;;;5028450;28;20116;-68
2023/03/31 05:31:22;;;;;;;5.20;1.60;;;12.70;99.90;;;;;;5022875;28;20029;-69
2023/03/31 05:33:47;;;;;;;30.75;2.70;;;12.60;99.80;;;;;;5032177;28;20021;-69
2023/03/31 05:36:16;;;;;;;6.35;2.13;;;12.60;99.90;;;;;;5030682;28;20154;-66
2023/03/31 05:38:42;;;;;;;6.45;1.70;;;12.60;99.90;;;;;;5032638;28;20553;-67
2023/03/31 05:41:09;;;;;;;9.15;2.22;;;12.60;99.90;;;;;;5027554;28;20029;-67
2023/03/31 05:43:36;;;;;;;3.97;2.13;;;12.60;99.90;;;;;;5034509;28;20091;-66
2023/03/31 05:46:02;;;;;;;4.28;1.90;;;12.60;99.90;;;;;;5032218;28;20036;-66
2023/03/31 05:48:28;;;;;;;6.43;2.05;;;12.60;99.80;;;;;;5028105;28;20029;-66
2023/03/31 05:51:00;;;;;;;5.28;1.92;;;12.60;99.90;;;;;;5030592;28;20048;-66
2023/03/31 05:53:26;;;;;;;4.07;1.88;;;12.60;99.90;;;;;;5031304;28;20376;-66
2023/03/31 05:56:00;;;;;;;5.30;1.95;;;12.70;99.90;;;;;;5028465;28;20025;-66
2023/03/31 05:58:27;;;;;;;5.68;2.08;;;12.70;99.90;;;;;;5029748;28;20033;-66
2023/03/31 06:01:12;;;;;;;6.38;2.35;;;12.80;99.90;;;;;;5028439;28;20045;-66
2023/03/31 06:03:40;;;;;;;6.13;2.40;;;12.90;99.90;;;;;;5030248;28;20079;-66
2023/03/31 06:06:09;;;;;;;4.88;2.15;;;12.90;99.90;;;;;;5028994;28;20029;-66
2023/03/31 06:08:36;;;;;;;4.13;1.95;;;13.00;99.90;;;;;;5032652;28;20522;-67
2023/03/31 06:11:07;;;;;;;5.50;2.38;;;13.00;99.90;;;;;;5027394;28;20033;-67
2023/03/31 06:13:34;;;;;;;14.73;2.58;;;13.10;99.90;;;;;;5032529;28;20064;-67
2023/03/31 06:16:00;;;;;;;4.78;2.10;;;13.10;99.90;;;;;;5025750;28;20036;-67
2023/03/31 06:18:28;;;;;;;4.05;2.05;;;13.20;99.90;;;;;;5029989;28;20049;-67
2023/03/31 06:20:55;;;;;;;9.07;2.35;;;13.10;99.90;;;;;;5030902;28;20128;-67
2023/03/31 06:23:21;;;;;;;6.10;2.60;;;13.20;99.90;;;;;;5036176;28;20029;-67
2023/03/31 06:25:47;;;;;;;6.72;2.50;;;13.20;99.90;;;;;;5025576;28;20068;-67
2023/03/31 06:28:12;;;;;;;6.07;2.45;;;13.30;99.90;;;;;;5030181;28;20025;-67
2023/03/31 06:30:38;;;;;;;5.05;2.40;;;13.30;99.90;;;;;;5029927;28;20055;-67
2023/03/31 06:33:04;;;;;;;7.50;2.38;;;13.40;99.80;;;;;;5035980;28;20025;-67
2023/03/31 06:35:30;;;;;;;4.57;2.35;;;13.40;99.70;;;;;;5029513;28;20062;-67
2023/03/31 06:37:56;;;;;;;8.82;2.60;;;13.40;99.70;;;;;;5032175;28;20133;-67
2023/03/31 06:40:22;;;;;;;7.47;2.33;;;13.40;99.60;;;;;;5030107;28;20536;-67
2023/03/31 06:42:47;;;;;;;15.07;2.53;;;13.40;99.60;;;;;;5033964;28;20032;-67
2023/03/31 06:45:13;;;;;;;5.30;2.25;;;13.40;99.60;;;;;;5031938;28;20487;-67
2023/03/31 06:47:40;;;;;;;4.68;2.20;;;13.40;99.60;;;;;;5030455;28;20024;-67
2023/03/31 06:50:08;;;;;;;6.90;3.28;;;13.40;99.50;;;;;;5029454;28;20076;-66
2023/03/31 06:52:35;;;;;;;7.38;3.13;;;13.40;99.60;;;;;;5030966;28;20074;-66
2023/03/31 06:55:00;;;;;;;5.53;2.75;;;13.50;99.50;;;;;;5023737;28;20104;-65
2023/03/31 06:57:27;;;;;;;8.13;2.88;;;13.50;99.50;;;;;;5031814;28;20577;-66
2023/03/31 06:59:53;;;;;;;5.75;2.33;;;13.50;99.40;;;;;;5029449;28;20083;-68
2023/03/31 07:02:19;;;;;;;4.97;2.20;;;13.50;99.30;;;;;;5031272;28;20052;-67
2023/03/31 07:04:45;;;;;;;5.07;2.53;;;13.50;99.20;;;;;;5024576;28;20440;-68
2023/03/31 07:07:11;;;;;;;4.72;2.35;;;13.60;99.20;;;;;;5038109;28;20021;-67
2023/03/31 07:09:36;;;;;;;10.02;3.22;;;13.60;99.10;;;;;;5025442;28;20477;-67
2023/03/31 07:12:04;;;;;;;9.10;3.28;;;13.60;99.10;;;;;;5033927;28;20056;-68
2023/03/31 07:14:30;;;;;;;5.53;2.30;;;13.60;99.10;;;;;;5027316;28;20445;-68
2023/03/31 07:16:56;;;;;;;5.55;2.65;;;13.70;99.10;;;;;;5028938;28;20028;-70
2023/03/31 07:19:22;;;;;;;7.30;2.78;;;13.70;99.10;;;;;;5028071;28;20034;-70
2023/03/31 07:21:48;;;;;;;4.80;2.05;;;13.80;99.00;;;;;;5012280;28;20018;-70
2023/03/31 07:24:13;;;;;;;5.88;2.60;;;13.80;99.00;;;;;;5011960;28;20435;-71
2023/03/31 07:26:39;;;;;;;5.30;2.38;;;13.90;98.90;;;;;;5027957;28;20060;-70
2023/03/31 07:29:05;;;;;;;6.38;2.20;;;13.90;98.90;;;;;;5019192;28;20037;-71
2023/03/31 07:31:30;;;;;;;6.07;2.72;;;14.00;98.90;;;;;;5017172;28;20014;-71
2023/03/31 07:33:56;;;;;;;5.47;2.30;;;14.10;99.00;;;;;;5016556;28;20030;-71
2023/03/31 07:36:22;;;;;;;5.50;2.22;;;14.10;98.80;;;;;;5014086;28;20042;-71
2023/03/31 07:38:48;;;;;;;7.13;2.42;;;14.20;98.80;;;;;;5018856;28;20037;-71
2023/03/31 07:41:16;;;;;;;6.25;3.30;;;14.30;98.80;;;;;;5025245;28;20478;-70
2023/03/31 07:43:43;;;;;;;6.13;2.40;;;14.30;98.70;;;;;;5031377;28;20474;-71
2023/03/31 07:46:16;;;;;;;5.80;2.35;;;14.50;98.60;;;;;;5014171;28;20113;-70
2023/03/31 07:48:42;;;;;;;5.90;1.92;;;14.50;98.50;;;;;;5014304;28;20048;-71
2023/03/31 07:51:08;;;;;;;4.88;2.22;;;14.50;98.70;;;;;;5024839;28;20033;-71
2023/03/31 07:53:35;;;;;;;5.57;2.10;;;14.60;98.40;;;;;;5027669;28;20021;-71
2023/03/31 07:56:00;;;;;;;5.18;2.60;;;14.60;98.30;;;;;;5017316;28;20091;-71
2023/03/31 07:58:27;;;;;;;5.30;2.20;;;14.70;98.20;;;;;;5027226;28;20427;-71
2023/03/31 08:00:52;;;;;;;5.05;1.92;;;14.80;98.10;;;;;;5029804;28;20088;-71
2023/03/31 08:03:18;;;;;;;7.55;2.55;;;14.80;98.00;;;;;;5032397;28;20485;-71
2023/03/31 08:05:43;;;;;;;3.72;1.48;;;14.90;98.00;;;;;;5016448;28;20018;-71
2023/03/31 08:08:09;;;;;;;7.38;2.40;;;14.90;97.90;;;;;;5028467;28;20040;-71
2023/03/31 08:10:34;;;;;;;6.47;2.13;;;15.00;97.90;;;;;;5013466;28;20037;-71
2023/03/31 08:13:00;;;;;;;4.60;1.85;;;15.10;97.80;;;;;;5030285;28;20068;-71
2023/03/31 08:15:26;;;;;;;6.88;1.90;;;15.20;97.70;;;;;;5018406;28;20042;-71
2023/03/31 08:17:51;;;;;;;5.68;2.17;;;15.30;97.50;;;;;;5027484;28;20022;-70
2023/03/31 08:20:17;;;;;;;6.82;2.40;;;15.40;97.50;;;;;;5018719;28;20049;-71
2023/03/31 08:22:43;;;;;;;6.85;2.35;;;15.50;97.40;;;;;;5013934;28;20141;-70
2023/03/31 08:25:09;;;;;;;6.43;2.55;;;15.60;97.40;;;;;;5020300;28;20114;-71
2023/03/31 08:27:36;;;;;;;7.95;2.58;;;15.60;97.20;;;;;;5024487;28;20030;-71
2023/03/31 08:30:03;;;;;;;7.05;2.90;;;15.70;97.10;;;;;;5021859;28;20030;-72
2023/03/31 08:32:31;;;;;;;5.20;2.60;;;15.80;97.00;;;;;;5019027;28;20288;-71
2023/03/31 08:34:56;;;;;;;5.35;2.20;;;15.90;96.90;;;;;;5013158;28;20125;-71
2023/03/31 08:37:23;;;;;;;5.68;2.28;;;16.00;96.70;;;;;;5021234;28;20508;-72
2023/03/31 08:39:48;;;;;;;8.13;2.72;;;16.10;96.70;;;;;;5021829;28;20030;-72
2023/03/31 08:42:18;;;;;;;5.40;2.33;;;16.20;96.60;;;;;;5024919;28;20397;-72
2023/03/31 08:44:53;;;;;;;6.35;2.15;;;16.30;96.50;;;;;;5012130;28;20025;-72
2023/03/31 08:47:22;;;;;;;12.88;3.17;;;16.40;96.40;;;;;;5040303;28;20482;-72
2023/03/31 08:49:53;;;;;;;6.45;1.85;;;16.50;96.30;;;;;;5028130;28;20033;-72
2023/03/31 08:52:25;;;;;;;7.25;2.10;;;16.60;96.20;;;;;;5017507;28;20037;-72
2023/03/31 08:54:56;;;;;;;5.95;2.17;;;16.70;95.90;;;;;;5027872;28;20026;-71
2023/03/31 08:57:30;;;;;;;9.90;2.40;;;16.70;95.90;;;;;;5025496;28;20539;-72
2023/03/31 09:00:05;;;;;;;10.18;3.30;;;16.80;95.80;;;;;;5029658;28;20045;-72
2023/03/31 09:02:37;;;;;;;8.27;2.63;;;16.90;95.80;;;;;;5014235;28;20030;-70
2023/03/31 09:05:25;;;;;;;9.50;2.20;;;17.00;95.60;;;;;;5021184;28;20076;-72
2023/03/31 09:07:59;;;;;;;11.45;2.90;;;17.10;95.50;;;;;;5043692;28;20025;-72
2023/03/31 09:10:41;;;;;;;11.70;2.80;;;17.20;95.40;;;;;;5014715;28;20432;-71
2023/03/31 09:13:16;;;;;;;6.95;2.38;;;17.10;95.10;;;;;;5029788;28;20072;-70
2023/03/31 09:16:08;;;;;;;;;;;17.20;95.20;;;;;;5022192;28;20049;-69
2023/03/31 09:18:36;;;;;;;7.53;2.13;;;17.20;95.50;;;;;;5021424;28;19909;-70
2023/03/31 09:21:30;;;;;;;7.38;2.00;;;17.20;95.20;;;;;;5018604;28;20529;-69
2023/03/31 09:24:03;;;;;;;12.02;2.42;;;17.30;95.20;;;;;;5015363;28;20092;-70
2023/03/31 09:26:44;;;;;;;7.30;2.45;;;17.30;95.20;;;;;;5023803;28;20040;-71
2023/03/31 09:29:17;;;;;;;10.52;2.67;;;17.40;95.00;;;;;;5021365;28;20025;-71
2023/03/31 09:31:44;;;;;;;5.22;1.95;;;17.40;95.10;;;;;;5021323;28;20025;-70
2023/03/31 09:34:14;;;;;;;5.03;1.65;;;17.40;94.80;;;;;;5012189;28;20030;-71
2023/03/31 09:36:40;;;;;;;5.28;2.67;;;17.50;94.50;;;;;;5021011;28;20025;-71
2023/03/31 09:39:11;;;;;;;4.60;1.80;;;17.50;94.50;;;;;;5023237;28;20529;-71
2023/03/31 09:41:37;;;;;;;6.60;1.92;;;17.50;94.40;;;;;;5024835;28;20472;-71
2023/03/31 09:44:03;;;;;;;6.20;2.30;;;17.50;94.30;;;;;;5019865;28;20033;-71
2023/03/31 09:46:30;;;;;;;4.30;2.28;;;17.60;94.30;;;;;;5027171;28;20510;-71
2023/03/31 09:49:11;;;;;;;5.15;2.10;;;17.70;94.10;;;;;;5026207;28;20484;-71
2023/03/31 09:51:43;;;;;;;4.70;1.77;;;17.70;94.00;;;;;;5021243;28;20033;-71
2023/03/31 09:54:33;;;;;;;5.95;2.10;;;17.70;93.70;;;;;;5018456;28;20366;-69
2023/03/31 09:56:59;;;;;;;8.60;2.15;;;17.70;93.70;;;;;;5016335;28;20102;-70
2023/03/31 09:59:33;;;;;;;7.70;2.75;;;17.70;93.60;;;;;;5024820;28;20041;-70
2023/03/31 10:02:02;;;;;;;7.90;2.67;;;17.60;93.50;;;;;;5019321;28;20273;-70
2023/03/31 10:04:32;;;;;;;7.13;2.20;;;17.70;93.60;;;;;;5016776;28;20293;-71
2023/03/31 10:06:59;;;;;;;5.10;2.28;;;17.70;93.60;;;;;;5014101;28;20021;-70
2023/03/31 10:09:29;;;;;;;4.93;1.98;;;17.80;93.50;;;;;;5020460;28;20029;-70
2023/03/31 10:12:01;;;;;;;6.18;2.70;;;17.80;93.40;;;;;;5024497;28;20065;-70
2023/03/31 10:14:46;;;;;;;5.15;2.05;;;17.80;93.20;;;;;;5017119;28;20056;-70
2023/03/31 10:17:17;;;;;;;6.68;2.00;;;17.70;93.20;;;;;;5022503;28;20381;-70
2023/03/31 10:20:16;;;;;;;4.30;1.80;;;17.70;93.10;;;;;;5027107;28;20029;-71
2023/03/31 10:22:45;;;;;;;4.78;2.20;;;17.60;93.20;;;;;;5019617;28;20112;-70
2023/03/31 10:25:17;;;;;;;4.28;2.40;;;17.60;93.20;;;;;;5021488;28;20047;-70
2023/03/31 10:27:46;;;;;;;5.55;2.67;;;17.60;93.30;;;;;;5015791;28;20057;-70
2023/03/31 10:30:16;;;;;;;3.72;1.90;;;17.50;93.40;;;;;;5014726;28;20117;-70
2023/03/31 10:32:43;;;;;;;4.60;2.10;;;17.60;93.50;;;;;;5011960;28;20034;-71
2023/03/31 10:35:23;;;;;;;5.55;2.35;;;17.60;93.60;;;;;;5020591;28;20153;-71
2023/03/31 10:37:53;;;;;;;5.18;2.30;;;17.60;93.60;;;;;;5019257;28;20116;-70
2023/03/31 10:40:24;;;;;;;4.80;2.53;;;17.60;93.60;;;;;;5028882;28;20059;-70
2023/03/31 10:43:00;;;;;;;5.90;2.70;;;17.60;93.80;;;;;;5025584;28;20069;-71
2023/03/31 10:45:28;;;;;;;5.95;2.72;;;17.60;93.70;;;;;;5029632;28;20091;-71
2023/03/31 10:47:59;;;;;;;6.45;2.38;;;17.60;93.70;;;;;;5013257;28;20069;-71
2023/03/31 10:50:33;;;;;;;5.93;2.80;;;17.60;93.60;;;;;;5015985;28;20038;-71
2023/03/31 10:53:13;;;;;;;5.32;2.22;;;17.60;93.40;;;;;;5016040;28;20033;-71
2023/03/31 10:55:58;;;;;;;2.65;1.90;;;17.60;93.30;;;;;;5023515;28;20509;-71
2023/03/31 10:58:46;;;;;;;5.15;2.70;;;17.50;93.40;;;;;;5013151;28;20026;-71
2023/03/31 11:01:40;;;;;;;3.42;2.28;;;17.50;93.40;;;;;;5015687;28;20489;-70
2023/03/31 11:04:24;;;;;;;3.35;2.28;;;17.50;93.50;;;;;;5016767;28;20116;-70
2023/03/31 11:07:01;;;;;;;3.38;2.22;;;17.40;93.90;;;;;;5018449;28;20026;-71
2023/03/31 11:09:44;;;;;;;4.35;2.20;;;17.40;94.20;;;;;;5022203;28;20059;-71
2023/03/31 11:12:26;;;;;;;5.70;2.88;;;17.40;94.60;;;;;;5016474;28;20057;-70
2023/03/31 11:15:11;;;;;;;4.13;2.45;;;17.40;94.80;;;;;;5021626;28;20108;-69
2023/03/31 11:17:49;;;;;;;4.72;2.65;;;17.40;95.10;;;;;;5023921;28;20469;-71
2023/03/31 11:20:27;;;;;;;4.63;2.17;;;17.50;95.30;;;;;;5030180;28;20033;-71
2023/03/31 11:23:23;;;;;;;4.45;2.15;;;17.50;95.50;;;;;;5017853;28;20780;-72
2023/03/31 11:26:06;;;;;;;4.65;2.40;;;17.50;95.50;;;;;;5017783;28;20033;-72
2023/03/31 11:28:42;;;;;;;4.63;1.73;;;17.60;95.40;;;;;;5027907;28;20056;-71
2023/03/31 11:31:23;;;;;;;4.55;2.08;;;17.70;95.40;;;;;;5027891;28;20032;-71
2023/03/31 11:34:43;;;;;;;4.85;2.28;;;17.80;95.30;;;;;;5029175;28;20121;-72
2023/03/31 11:37:14;;;;;;;4.53;1.95;;;17.80;95.00;;;;;;5006404;28;20109;-71
2023/03/31 11:39:45;;;;;;;5.50;2.35;;;17.80;94.90;;;;;;5009201;28;20037;-71
2023/03/31 11:42:31;;;;;;;4.25;2.45;;;17.80;94.90;;;;;;5015658;28;20037;-72
2023/03/31 11:45:03;;;;;;;4.72;2.13;;;17.80;94.90;;;;;;5028098;28;20037;-72
2023/03/31 11:47:36;;;;;;;5.47;2.22;;;17.80;94.90;;;;;;5022663;28;20048;-72
2023/03/31 11:50:25;;;;;;;6.63;2.50;;;17.80;94.80;;;;;;5014215;28;20041;-71
2023/03/31 11:52:59;;;;;;;5.22;1.98;;;17.80;94.50;;;;;;5021970;28;20030;-71
2023/03/31 11:55:28;;;;;;;7.78;2.53;;;17.80;94.30;;;;;;5024040;28;20037;-72
2023/03/31 11:58:07;;;;;;;6.03;2.30;;;17.90;94.20;;;;;;5019075;28;20033;-72
2023/03/31 12:00:39;;;;;;;7.00;3.13;;;17.90;94.10;;;;;;5014403;28;20053;-72
2023/03/31 12:03:36;;;;;;;6.63;3.03;;;17.90;94.20;;;;;;5032730;28;20025;-71
2023/03/31 12:06:33;;;;;;;6.28;2.33;;;17.90;94.30;;;;;;5017901;28;20029;-71
2023/03/31 12:09:36;;;;;;;6.60;2.72;;;17.80;94.30;;;;;;5028512;28;20037;-71
2023/03/31 12:12:15;;;;;;;5.03;2.53;;;17.80;94.30;;;;;;5024183;28;20060;-72
2023/03/31 12:15:26;;;;;;;4.28;2.28;;;17.70;94.20;;;;;;5033185;28;20068;-71
2023/03/31 12:17:59;;;;;;;4.38;2.17;;;17.70;94.30;;;;;;4985714;28;20573;-71
2023/03/31 12:20:36;;;;;;;4.22;2.40;;;17.60;94.20;;;;;;5013925;28;20044;-71
2023/03/31 12:23:09;;;;;;;6.15;2.95;;;17.60;94.20;;;;;;5018488;28;20520;-71
2023/03/31 12:25:59;;;;;;;4.13;2.30;;;17.60;94.10;;;;;;5016369;28;20502;-71
2023/03/31 12:28:26;;;;;;;3.70;1.95;;;17.60;94.20;;;;;;5021429;28;20054;-71
2023/03/31 12:30:55;;;;;;;4.30;2.15;;;17.60;94.10;;;;;;5026754;28;20175;-71
2023/03/31 12:33:43;;;;;;;6.15;2.05;;;17.80;93.80;;;;;;5030428;28;20424;-71
2023/03/31 12:36:28;;;;;;;5.32;2.13;;;17.90;93.60;;;;;;5020973;28;20080;-72
2023/03/31 12:39:20;;;;;;;4.13;2.10;;;17.90;93.40;;;;;;5027213;28;20022;-71
2023/03/31 12:42:07;;;;;;;6.50;2.40;;;17.90;93.20;;;;;;5022957;28;20069;-71
2023/03/31 12:44:45;;;;;;;8.57;2.63;;;17.90;93.10;;;;;;5016939;28;20375;-70
2023/03/31 12:47:35;;;;;;;4.57;1.90;;;17.80;92.90;;;;;;5029750;28;20381;-71
2023/03/31 12:50:27;;;;;;;3.40;1.70;;;17.70;92.80;;;;;;5023144;28;20056;-70
2023/03/31 12:53:01;;;;;;;6.50;1.70;;;17.50;92.70;;;;;;5019344;28;20040;-71
2023/03/31 12:55:36;;;;;;;;;;;17.20;92.90;;;;;;5019634;28;20057;-72
2023/03/31 12:58:25;;;;;;;4.38;1.83;;;17.10;92.90;;;;;;5014506;28;19905;-71
2023/03/31 13:01:06;;;;;;;2.63;1.42;;;16.80;93.50;;;;;;5021237;28;20128;-72
2023/03/31 13:03:47;;;;;;;4.55;1.65;;;16.60;93.90;;;;;;5025038;28;20549;-71
2023/03/31 13:06:33;;;;;;;3.72;1.70;;;16.50;94.30;;;;;;5023004;28;20500;-71
2023/03/31 13:09:04;;;;;;;4.03;1.98;;;16.30;94.50;;;;;;5019959;28;20045;-72
2023/03/31 13:11:35;;;;;;;3.15;1.73;;;16.20;94.90;;;;;;5037822;28;20033;-71
2023/03/31 13:14:02;;;;;;;4.05;1.80;;;16.20;95.20;;;;;;5022278;28;20414;-70